DAAJ

Djanet Inedbirene Airport

Djanet, Algeria
METAR DAAJ 220600Z 33004KT 6000 NSC 19/04 Q1015
Observed Flight Rules
Apr-22 @ 06:00 UTC (57 minutes ago) Marginal Visual Flight Rules
Wind Visibility Clouds
330° at 4 knots 6,003 meters
  • Clear skies
Temperatures Readings
Current 19°C / 66°F
Dewpoint 4°C / 39°F
Humidity 37%
Altimeter 29.97" Hg
Pressure 1015 hPa
Elevation 968
METAR DAAJ 220600Z 33004KT 6000 NSC 19/04 Q1015
Observed Flight Rules
Apr-22 @ 06:00 UTC
(57 minutes ago)
MVFR
Wind Visibility
330° at 4 knots 6,003 meters
Clouds
  • Clear skies
Temperature Dewpoint
19°C / 66°F 4°C / 39°F
Humidity Altimeter Pressure
37% 29.97" Hg 1015 hPa